createdAt,value
2023-04-27T00:28:19.708Z,98212.75
2023-04-27T00:58:22.664Z,98201.22
2023-04-27T01:28:25.806Z,98223.88
2023-04-27T01:58:29.020Z,98221.66
2023-04-27T02:28:32.735Z,98229.69
2023-04-27T02:58:36.212Z,98223.94
2023-04-27T03:28:39.478Z,98201.78
2023-04-27T03:58:42.448Z,98216.53
2023-04-27T04:28:45.345Z,98228.41
2023-04-27T04:58:48.349Z,98255.06
2023-04-27T05:28:51.307Z,98270.25
2023-04-27T05:58:54.558Z,98293.28
2023-04-27T06:28:57.729Z,98314.16
2023-04-27T06:59:00.638Z,98328.22
2023-04-27T07:29:11.082Z,98308.59
2023-04-27T07:59:22.261Z,98308.25
2023-04-27T08:29:28.454Z,98297.78
2023-04-27T08:59:32.070Z,98298.34
2023-04-27T09:29:36.075Z,98291.72
2023-04-27T10:00:00.441Z,98276.72
2023-04-27T10:30:10.776Z,98257.28
2023-04-27T11:00:16.546Z,98230.47
2023-04-27T11:30:20.685Z,98203.94
2023-04-27T12:00:23.938Z,98186.09
2023-04-27T12:30:26.919Z,98155.47
2023-04-27T13:00:30.143Z,98133.69
2023-04-27T13:30:33.172Z,98133.56
2023-04-27T14:00:36.151Z,98118.38
2023-04-27T14:30:39.132Z,98100.97
2023-04-27T15:00:43.090Z,98103.81
2023-04-27T15:30:46.090Z,98048.50
2023-04-27T16:00:49.090Z,98036.75
2023-04-27T16:30:53.126Z,98024.56
2023-04-27T17:00:56.210Z,98016.56
2023-04-27T17:30:59.207Z,97999.03
2023-04-27T18:01:02.157Z,97987.06
2023-04-27T18:31:13.360Z,97987.81
2023-04-27T19:01:19.818Z,97989.25
2023-04-27T19:31:22.909Z,97990.63
2023-04-27T20:01:28.077Z,98003.34
2023-04-27T20:31:31.157Z,97993.19
2023-04-27T21:01:34.314Z,97952.97
2023-04-27T21:31:37.503Z,97948.28
2023-04-27T22:01:40.558Z,97918.44
2023-04-27T22:31:43.787Z,97903.72
2023-04-27T23:01:46.754Z,97897.09
2023-04-27T23:31:49.661Z,97883.16
